sensor_id;sensor_type;location;lat;lon;timestamp;pressure;altitude;pressure_sealevel;temperature;humidity
67373;BME280;54257;54.496;18.412;2022-09-02T00:01:32;100560.41;;;11.17;71.12
67373;BME280;54257;54.496;18.412;2022-09-02T00:04:03;100562.09;;;11.16;71.17
67373;BME280;54257;54.496;18.412;2022-09-02T00:06:32;100563.93;;;11.15;70.96
67373;BME280;54257;54.496;18.412;2022-09-02T00:09:00;100562.34;;;11.13;71.07
67373;BME280;54257;54.496;18.412;2022-09-02T00:11:29;100560.21;;;11.09;71.02
67373;BME280;54257;54.496;18.412;2022-09-02T00:14:01;100561.59;;;11.03;71.17
67373;BME280;54257;54.496;18.412;2022-09-02T00:16:28;100561.72;;;10.95;71.48
67373;BME280;54257;54.496;18.412;2022-09-02T00:18:57;100561.15;;;10.85;71.56
67373;BME280;54257;54.496;18.412;2022-09-02T00:21:25;100557.46;;;10.82;71.74
67373;BME280;54257;54.496;18.412;2022-09-02T00:23:52;100561.13;;;10.84;71.96
67373;BME280;54257;54.496;18.412;2022-09-02T00:26:19;100560.97;;;10.84;71.95
67373;BME280;54257;54.496;18.412;2022-09-02T00:28:46;100561.88;;;10.87;71.94
67373;BME280;54257;54.496;18.412;2022-09-02T00:31:14;100561.24;;;10.89;71.94
67373;BME280;54257;54.496;18.412;2022-09-02T00:33:40;100564.95;;;10.94;72.00
67373;BME280;54257;54.496;18.412;2022-09-02T00:36:08;100566.59;;;10.98;71.83
67373;BME280;54257;54.496;18.412;2022-09-02T00:38:35;100569.80;;;11.03;71.87
67373;BME280;54257;54.496;18.412;2022-09-02T00:41:07;100568.48;;;11.05;72.10
67373;BME280;54257;54.496;18.412;2022-09-02T00:43:40;100570.36;;;11.06;72.40
67373;BME280;54257;54.496;18.412;2022-09-02T00:46:09;100573.82;;;11.07;72.30
67373;BME280;54257;54.496;18.412;2022-09-02T00:48:39;100571.20;;;11.12;72.36
67373;BME280;54257;54.496;18.412;2022-09-02T00:51:08;100577.33;;;11.17;72.38
67373;BME280;54257;54.496;18.412;2022-09-02T00:53:38;100575.06;;;11.23;72.54
67373;BME280;54257;54.496;18.412;2022-09-02T00:56:13;100577.06;;;11.28;72.67
67373;BME280;54257;54.496;18.412;2022-09-02T00:58:42;100571.16;;;11.32;72.98
67373;BME280;54257;54.496;18.412;2022-09-02T01:01:10;100567.32;;;11.35;72.99
67373;BME280;54257;54.496;18.412;2022-09-02T01:03:38;100569.41;;;11.37;73.20
67373;BME280;54257;54.496;18.412;2022-09-02T01:06:09;100566.42;;;11.41;73.55
67373;BME280;54257;54.496;18.412;2022-09-02T01:08:37;100564.06;;;11.42;73.85
67373;BME280;54257;54.496;18.412;2022-09-02T01:11:05;100564.48;;;11.46;73.74
67373;BME280;54257;54.496;18.412;2022-09-02T01:13:38;100562.36;;;11.50;73.56
67373;BME280;54257;54.496;18.412;2022-09-02T01:16:12;100563.64;;;11.54;73.52
67373;BME280;54257;54.496;18.412;2022-09-02T01:18:44;100566.31;;;11.59;73.66
67373;BME280;54257;54.496;18.412;2022-09-02T01:21:13;100567.39;;;11.61;74.03
67373;BME280;54257;54.496;18.412;2022-09-02T01:23:40;100569.30;;;11.63;74.21
67373;BME280;54257;54.496;18.412;2022-09-02T01:26:07;100567.83;;;11.65;74.28
67373;BME280;54257;54.496;18.412;2022-09-02T01:28:35;100566.20;;;11.69;74.11
67373;BME280;54257;54.496;18.412;2022-09-02T01:31:03;100565.79;;;11.73;73.95
67373;BME280;54257;54.496;18.412;2022-09-02T01:33:30;100566.05;;;11.78;74.09
67373;BME280;54257;54.496;18.412;2022-09-02T01:35:57;100567.17;;;11.82;74.15
67373;BME280;54257;54.496;18.412;2022-09-02T01:38:25;100562.63;;;11.85;74.25
67373;BME280;54257;54.496;18.412;2022-09-02T01:40:52;100560.62;;;11.88;74.14
67373;BME280;54257;54.496;18.412;2022-09-02T01:43:22;100558.98;;;11.91;73.85
67373;BME280;54257;54.496;18.412;2022-09-02T01:45:52;100556.31;;;11.94;73.64
67373;BME280;54257;54.496;18.412;2022-09-02T01:48:20;100550.40;;;11.98;73.55
67373;BME280;54257;54.496;18.412;2022-09-02T01:50:53;100554.73;;;12.00;73.74
67373;BME280;54257;54.496;18.412;2022-09-02T01:53:20;100553.76;;;12.03;73.57
67373;BME280;54257;54.496;18.412;2022-09-02T01:55:48;100555.16;;;12.04;73.77
67373;BME280;54257;54.496;18.412;2022-09-02T01:58:15;100550.70;;;12.04;73.89
67373;BME280;54257;54.496;18.412;2022-09-02T02:00:42;100550.84;;;12.03;73.82
67373;BME280;54257;54.496;18.412;2022-09-02T02:03:09;100550.31;;;12.02;73.73
67373;BME280;54257;54.496;18.412;2022-09-02T02:05:37;100550.83;;;12.02;73.83
67373;BME280;54257;54.496;18.412;2022-09-02T02:08:04;100550.47;;;12.01;73.77
67373;BME280;54257;54.496;18.412;2022-09-02T02:10:32;100547.51;;;11.98;73.71
67373;BME280;54257;54.496;18.412;2022-09-02T02:13:00;100547.06;;;11.94;73.70
67373;BME280;54257;54.496;18.412;2022-09-02T02:15:28;100547.36;;;11.91;73.78
67373;BME280;54257;54.496;18.412;2022-09-02T02:17:55;100547.98;;;11.89;73.73
67373;BME280;54257;54.496;18.412;2022-09-02T02:20:22;100545.21;;;11.87;73.85
67373;BME280;54257;54.496;18.412;2022-09-02T02:22:49;100547.70;;;11.83;73.93
67373;BME280;54257;54.496;18.412;2022-09-02T02:25:17;100546.35;;;11.77;73.97
67373;BME280;54257;54.496;18.412;2022-09-02T02:27:44;100547.95;;;11.72;73.76
67373;BME280;54257;54.496;18.412;2022-09-02T02:30:14;100545.83;;;11.69;73.76
67373;BME280;54257;54.496;18.412;2022-09-02T02:32:42;100545.23;;;11.65;73.90
67373;BME280;54257;54.496;18.412;2022-09-02T02:35:13;100544.64;;;11.62;73.86
67373;BME280;54257;54.496;18.412;2022-09-02T02:37:40;100545.42;;;11.58;73.80
67373;BME280;54257;54.496;18.412;2022-09-02T02:40:08;100546.53;;;11.55;73.85
67373;BME280;54257;54.496;18.412;2022-09-02T02:42:37;100545.58;;;11.49;73.78
67373;BME280;54257;54.496;18.412;2022-09-02T02:45:06;100541.73;;;11.46;73.63
67373;BME280;54257;54.496;18.412;2022-09-02T02:47:40;100540.13;;;11.43;73.49
67373;BME280;54257;54.496;18.412;2022-09-02T02:50:10;100543.79;;;11.39;73.33
67373;BME280;54257;54.496;18.412;2022-09-02T02:52:39;100542.02;;;11.36;73.32
67373;BME280;54257;54.496;18.412;2022-09-02T02:55:08;100545.56;;;11.33;73.34
67373;BME280;54257;54.496;18.412;2022-09-02T02:57:38;100540.84;;;11.30;73.22
67373;BME280;54257;54.496;18.412;2022-09-02T03:00:14;100544.20;;;11.26;73.18
67373;BME280;54257;54.496;18.412;2022-09-02T03:02:42;100542.88;;;11.22;73.14
67373;BME280;54257;54.496;18.412;2022-09-02T03:05:11;100541.62;;;11.18;73.07
67373;BME280;54257;54.496;18.412;2022-09-02T03:07:40;100542.70;;;11.14;73.01
67373;BME280;54257;54.496;18.412;2022-09-02T03:10:10;100540.19;;;11.09;72.92
67373;BME280;54257;54.496;18.412;2022-09-02T03:12:39;100538.20;;;11.04;72.96
67373;BME280;54257;54.496;18.412;2022-09-02T03:15:08;100538.83;;;11.01;72.97
67373;BME280;54257;54.496;18.412;2022-09-02T03:17:34;100539.05;;;10.98;72.87
67373;BME280;54257;54.496;18.412;2022-09-02T03:20:03;100537.79;;;10.93;72.93
67373;BME280;54257;54.496;18.412;2022-09-02T03:22:31;100536.66;;;10.90;72.94
67373;BME280;54257;54.496;18.412;2022-09-02T03:24:58;100539.00;;;10.88;72.99
67373;BME280;54257;54.496;18.412;2022-09-02T03:27:25;100537.23;;;10.85;73.01
67373;BME280;54257;54.496;18.412;2022-09-02T03:29:52;100537.02;;;10.83;72.94
67373;BME280;54257;54.496;18.412;2022-09-02T03:32:19;100539.14;;;10.80;72.98
67373;BME280;54257;54.496;18.412;2022-09-02T03:34:46;100541.11;;;10.76;73.00
67373;BME280;54257;54.496;18.412;2022-09-02T03:37:13;100538.70;;;10.69;72.90
67373;BME280;54257;54.496;18.412;2022-09-02T03:39:40;100543.38;;;10.65;72.90
67373;BME280;54257;54.496;18.412;2022-09-02T03:42:07;100545.77;;;10.65;72.96
67373;BME280;54257;54.496;18.412;2022-09-02T03:44:34;100549.55;;;10.66;72.94
67373;BME280;54257;54.496;18.412;2022-09-02T03:47:02;100548.73;;;10.67;72.90
67373;BME280;54257;54.496;18.412;2022-09-02T03:49:29;100550.46;;;10.67;72.74
67373;BME280;54257;54.496;18.412;2022-09-02T03:51:57;100554.52;;;10.66;72.59
67373;BME280;54257;54.496;18.412;2022-09-02T03:54:24;100552.97;;;10.66;72.57
67373;BME280;54257;54.496;18.412;2022-09-02T03:56:51;100556.54;;;10.65;72.48
67373;BME280;54257;54.496;18.412;2022-09-02T03:59:18;100561.09;;;10.62;72.45
67373;BME280;54257;54.496;18.412;2022-09-02T04:01:45;100557.11;;;10.61;72.32
67373;BME280;54257;54.496;18.412;2022-09-02T04:04:13;100559.31;;;10.60;72.32
67373;BME280;54257;54.496;18.412;2022-09-02T04:06:39;100563.69;;;10.58;72.34
67373;BME280;54257;54.496;18.412;2022-09-02T04:09:06;100562.46;;;10.57;72.37
67373;BME280;54257;54.496;18.412;2022-09-02T04:11:33;100563.95;;;10.55;72.29
67373;BME280;54257;54.496;18.412;2022-09-02T04:14:01;100565.91;;;10.51;72.40
67373;BME280;54257;54.496;18.412;2022-09-02T04:16:28;100564.15;;;10.50;72.44
67373;BME280;54257;54.496;18.412;2022-09-02T04:18:57;100566.49;;;10.48;72.44
67373;BME280;54257;54.496;18.412;2022-09-02T04:21:25;100566.59;;;10.45;72.57
67373;BME280;54257;54.496;18.412;2022-09-02T04:23:52;100565.14;;;10.42;72.57
67373;BME280;54257;54.496;18.412;2022-09-02T04:26:20;100564.92;;;10.40;72.74
67373;BME280;54257;54.496;18.412;2022-09-02T04:28:48;100566.08;;;10.38;72.81
67373;BME280;54257;54.496;18.412;2022-09-02T04:31:18;100565.67;;;10.36;72.87
67373;BME280;54257;54.496;18.412;2022-09-02T04:33:46;100567.69;;;10.34;72.95
67373;BME280;54257;54.496;18.412;2022-09-02T04:36:15;100571.92;;;10.33;72.99
67373;BME280;54257;54.496;18.412;2022-09-02T04:38:42;100570.35;;;10.32;73.11
67373;BME280;54257;54.496;18.412;2022-09-02T04:41:13;100570.52;;;10.32;73.24
67373;BME280;54257;54.496;18.412;2022-09-02T04:43:41;100573.41;;;10.32;73.31
67373;BME280;54257;54.496;18.412;2022-09-02T04:46:11;100573.23;;;10.32;73.36
67373;BME280;54257;54.496;18.412;2022-09-02T04:48:39;100573.58;;;10.32;73.53
67373;BME280;54257;54.496;18.412;2022-09-02T04:51:12;100571.97;;;10.29;73.73
67373;BME280;54257;54.496;18.412;2022-09-02T04:53:42;100573.80;;;10.27;73.99
67373;BME280;54257;54.496;18.412;2022-09-02T04:56:13;100573.57;;;10.25;73.98
67373;BME280;54257;54.496;18.412;2022-09-02T04:58:41;100569.13;;;10.26;74.22
67373;BME280;54257;54.496;18.412;2022-09-02T05:01:15;100571.09;;;10.23;74.01
67373;BME280;54257;54.496;18.412;2022-09-02T05:03:44;100571.30;;;10.24;74.01
67373;BME280;54257;54.496;18.412;2022-09-02T05:06:14;100571.73;;;10.26;74.03
67373;BME280;54257;54.496;18.412;2022-09-02T05:08:42;100570.60;;;10.28;74.06
67373;BME280;54257;54.496;18.412;2022-09-02T05:11:18;100570.31;;;10.31;74.15
67373;BME280;54257;54.496;18.412;2022-09-02T05:13:47;100569.67;;;10.33;74.23
67373;BME280;54257;54.496;18.412;2022-09-02T05:16:19;100567.89;;;10.35;74.20
67373;BME280;54257;54.496;18.412;2022-09-02T05:18:49;100568.97;;;10.37;74.31
67373;BME280;54257;54.496;18.412;2022-09-02T05:21:18;100570.02;;;10.39;74.22
67373;BME280;54257;54.496;18.412;2022-09-02T05:23:45;100569.36;;;10.40;74.12
67373;BME280;54257;54.496;18.412;2022-09-02T05:26:12;100570.21;;;10.40;74.21
67373;BME280;54257;54.496;18.412;2022-09-02T05:28:40;100570.95;;;10.42;74.19
67373;BME280;54257;54.496;18.412;2022-09-02T05:31:12;100569.63;;;10.43;74.22
67373;BME280;54257;54.496;18.412;2022-09-02T05:33:40;100568.48;;;10.45;74.35
67373;BME280;54257;54.496;18.412;2022-09-02T05:36:13;100566.80;;;10.46;74.56
67373;BME280;54257;54.496;18.412;2022-09-02T05:38:41;100568.52;;;10.46;74.57
67373;BME280;54257;54.496;18.412;2022-09-02T05:41:10;100566.86;;;10.49;74.79
67373;BME280;54257;54.496;18.412;2022-09-02T05:43:39;100570.06;;;10.53;74.64
67373;BME280;54257;54.496;18.412;2022-09-02T05:46:08;100568.46;;;10.58;74.91
67373;BME280;54257;54.496;18.412;2022-09-02T05:48:37;100569.44;;;10.61;75.20
67373;BME280;54257;54.496;18.412;2022-09-02T05:51:24;100569.44;;;10.68;75.42
67373;BME280;54257;54.496;18.412;2022-09-02T05:53:56;100570.79;;;10.74;75.68
67373;BME280;54257;54.496;18.412;2022-09-02T05:56:23;100570.64;;;10.82;75.93
67373;BME280;54257;54.496;18.412;2022-09-02T05:58:50;100574.28;;;10.91;76.19
67373;BME280;54257;54.496;18.412;2022-09-02T06:01:19;100573.83;;;11.00;76.44
67373;BME280;54257;54.496;18.412;2022-09-02T06:03:46;100576.49;;;11.11;77.02
67373;BME280;54257;54.496;18.412;2022-09-02T06:06:13;100577.48;;;11.24;77.46
67373;BME280;54257;54.496;18.412;2022-09-02T06:08:40;100576.12;;;11.38;78.06
67373;BME280;54257;54.496;18.412;2022-09-02T06:11:11;100572.91;;;11.55;78.38
67373;BME280;54257;54.496;18.412;2022-09-02T06:13:41;100573.75;;;11.70;78.51
67373;BME280;54257;54.496;18.412;2022-09-02T06:16:12;100579.71;;;11.84;78.26
67373;BME280;54257;54.496;18.412;2022-09-02T06:18:41;100579.16;;;11.97;78.19
67373;BME280;54257;54.496;18.412;2022-09-02T06:21:08;100573.55;;;12.08;78.07
67373;BME280;54257;54.496;18.412;2022-09-02T06:23:37;100571.50;;;12.17;77.75
67373;BME280;54257;54.496;18.412;2022-09-02T06:26:06;100574.11;;;12.27;77.76
67373;BME280;54257;54.496;18.412;2022-09-02T06:28:34;100573.83;;;12.40;77.77
67373;BME280;54257;54.496;18.412;2022-09-02T06:31:30;100575.45;;;12.52;77.37
67373;BME280;54257;54.496;18.412;2022-09-02T06:33:58;100576.91;;;12.67;77.08
67373;BME280;54257;54.496;18.412;2022-09-02T06:36:28;100580.72;;;12.78;76.90
67373;BME280;54257;54.496;18.412;2022-09-02T06:38:58;100578.61;;;12.95;76.92
67373;BME280;54257;54.496;18.412;2022-09-02T06:41:30;100585.08;;;13.33;79.07
67373;BME280;54257;54.496;18.412;2022-09-02T06:44:02;100583.50;;;13.90;79.37
67373;BME280;54257;54.496;18.412;2022-09-02T06:46:33;100580.83;;;14.54;79.05
67373;BME280;54257;54.496;18.412;2022-09-02T06:49:03;100582.95;;;15.16;76.88
67373;BME280;54257;54.496;18.412;2022-09-02T06:51:34;100583.89;;;15.73;74.77
67373;BME280;54257;54.496;18.412;2022-09-02T06:54:03;100578.27;;;16.27;73.62
67373;BME280;54257;54.496;18.412;2022-09-02T06:56:30;100577.89;;;16.70;71.23
67373;BME280;54257;54.496;18.412;2022-09-02T06:58:58;100573.61;;;16.91;70.00
67373;BME280;54257;54.496;18.412;2022-09-02T07:01:27;100572.73;;;17.32;69.70
67373;BME280;54257;54.496;18.412;2022-09-02T07:03:55;100574.39;;;17.80;68.65
67373;BME280;54257;54.496;18.412;2022-09-02T07:06:46;100575.00;;;18.40;67.07
67373;BME280;54257;54.496;18.412;2022-09-02T07:09:17;100578.88;;;18.88;65.22
67373;BME280;54257;54.496;18.412;2022-09-02T07:11:47;100578.47;;;19.19;62.70
67373;BME280;54257;54.496;18.412;2022-09-02T07:14:16;100583.56;;;19.30;61.61
67373;BME280;54257;54.496;18.412;2022-09-02T07:16:51;100579.85;;;19.38;59.99
67373;BME280;54257;54.496;18.412;2022-09-02T07:19:19;100582.40;;;19.43;59.94
67373;BME280;54257;54.496;18.412;2022-09-02T07:21:47;100581.89;;;19.62;59.46
67373;BME280;54257;54.496;18.412;2022-09-02T07:24:16;100582.67;;;19.85;58.82
67373;BME280;54257;54.496;18.412;2022-09-02T07:26:43;100581.63;;;20.01;57.33
67373;BME280;54257;54.496;18.412;2022-09-02T07:29:10;100579.97;;;20.09;56.27
67373;BME280;54257;54.496;18.412;2022-09-02T07:31:40;100578.80;;;20.19;56.46
67373;BME280;54257;54.496;18.412;2022-09-02T07:34:08;100580.31;;;20.36;55.82
67373;BME280;54257;54.496;18.412;2022-09-02T07:36:36;100578.76;;;20.51;54.83
67373;BME280;54257;54.496;18.412;2022-09-02T07:39:05;100577.38;;;20.61;54.20
67373;BME280;54257;54.496;18.412;2022-09-02T07:41:33;100582.10;;;20.71;54.25
67373;BME280;54257;54.496;18.412;2022-09-02T07:44:01;100584.46;;;20.75;52.31
67373;BME280;54257;54.496;18.412;2022-09-02T07:46:28;100587.75;;;20.76;52.26
67373;BME280;54257;54.496;18.412;2022-09-02T07:49:02;100586.83;;;20.68;51.13
67373;BME280;54257;54.496;18.412;2022-09-02T07:51:32;100583.56;;;20.54;51.41
67373;BME280;54257;54.496;18.412;2022-09-02T07:54:01;100580.81;;;20.51;51.14
67373;BME280;54257;54.496;18.412;2022-09-02T07:56:28;100585.27;;;20.43;50.72
67373;BME280;54257;54.496;18.412;2022-09-02T07:58:55;100583.62;;;20.35;50.96
67373;BME280;54257;54.496;18.412;2022-09-02T08:01:22;100585.24;;;20.31;50.91
67373;BME280;54257;54.496;18.412;2022-09-02T08:03:51;100586.95;;;20.33;51.31
67373;BME280;54257;54.496;18.412;2022-09-02T08:06:19;100585.10;;;20.44;51.02
67373;BME280;54257;54.496;18.412;2022-09-02T08:08:46;100585.25;;;20.46;50.70
67373;BME280;54257;54.496;18.412;2022-09-02T08:11:13;100584.70;;;20.48;50.88
67373;BME280;54257;54.496;18.412;2022-09-02T08:13:40;100591.58;;;20.51;50.82
67373;BME280;54257;54.496;18.412;2022-09-02T08:16:07;100594.56;;;20.62;50.88
67373;BME280;54257;54.496;18.412;2022-09-02T08:18:34;100597.94;;;20.68;50.80
67373;BME280;54257;54.496;18.412;2022-09-02T08:21:01;100597.13;;;20.77;50.78
67373;BME280;54257;54.496;18.412;2022-09-02T08:23:29;100597.21;;;20.93;50.30
67373;BME280;54257;54.496;18.412;2022-09-02T08:26:00;100603.46;;;21.05;50.03
67373;BME280;54257;54.496;18.412;2022-09-02T08:28:28;100600.81;;;21.17;49.86
67373;BME280;54257;54.496;18.412;2022-09-02T08:30:57;100604.20;;;21.23;49.47
67373;BME280;54257;54.496;18.412;2022-09-02T08:33:24;100603.36;;;21.34;49.10
67373;BME280;54257;54.496;18.412;2022-09-02T08:35:51;100604.73;;;21.44;47.96
67373;BME280;54257;54.496;18.412;2022-09-02T08:38:18;100599.43;;;21.40;48.61
67373;BME280;54257;54.496;18.412;2022-09-02T08:40:48;100600.11;;;21.50;48.46
67373;BME280;54257;54.496;18.412;2022-09-02T08:43:38;100597.09;;;21.63;48.39
67373;BME280;54257;54.496;18.412;2022-09-02T08:46:09;100598.86;;;21.71;47.65
67373;BME280;54257;54.496;18.412;2022-09-02T08:48:58;100600.92;;;21.72;47.60
67373;BME280;54257;54.496;18.412;2022-09-02T08:57:09;100600.98;;;21.40;47.19
67373;BME280;54257;54.496;18.412;2022-09-02T08:59:37;100600.38;;;21.23;47.68
67373;BME280;54257;54.496;18.412;2022-09-02T09:02:12;100603.01;;;21.33;48.79
67373;BME280;54257;54.496;18.412;2022-09-02T09:05:15;100598.73;;;21.78;48.51
67373;BME280;54257;54.496;18.412;2022-09-02T09:10:41;100593.75;;;22.98;44.93
67373;BME280;54257;54.496;18.412;2022-09-02T09:16:40;100586.08;;;23.59;43.38
67373;BME280;54257;54.496;18.412;2022-09-02T09:21:40;100581.30;;;24.31;41.68
67373;BME280;54257;54.496;18.412;2022-09-02T09:24:48;100575.70;;;24.37;40.71
67373;BME280;54257;54.496;18.412;2022-09-02T09:27:18;100577.89;;;24.09;40.10
67373;BME280;54257;54.496;18.412;2022-09-02T09:29:47;100586.01;;;23.49;39.49
67373;BME280;54257;54.496;18.412;2022-09-02T09:32:28;100588.20;;;22.96;40.93
67373;BME280;54257;54.496;18.412;2022-09-02T09:35:02;100587.77;;;22.62;41.48
67373;BME280;54257;54.496;18.412;2022-09-02T09:37:51;100588.21;;;22.17;42.45
67373;BME280;54257;54.496;18.412;2022-09-02T09:40:22;100592.52;;;21.84;42.81
67373;BME280;54257;54.496;18.412;2022-09-02T09:45:38;100595.33;;;21.14;43.42
67373;BME280;54257;54.496;18.412;2022-09-02T09:53:34;100602.16;;;20.37;45.67
67373;BME280;54257;54.496;18.412;2022-09-02T09:56:25;100598.30;;;20.28;45.89
67373;BME280;54257;54.496;18.412;2022-09-02T09:58:54;100600.23;;;20.11;45.94
67373;BME280;54257;54.496;18.412;2022-09-02T10:01:28;100598.41;;;20.06;46.67
67373;BME280;54257;54.496;18.412;2022-09-02T10:04:04;100596.08;;;20.11;46.84
67373;BME280;54257;54.496;18.412;2022-09-02T10:06:39;100596.58;;;20.13;47.02
67373;BME280;54257;54.496;18.412;2022-09-02T10:11:56;100595.98;;;20.20;46.89
67373;BME280;54257;54.496;18.412;2022-09-02T10:14:26;100595.36;;;20.25;46.55
67373;BME280;54257;54.496;18.412;2022-09-02T10:36:10;100595.10;;;19.76;47.23
67373;BME280;54257;54.496;18.412;2022-09-02T10:38:45;100598.77;;;19.73;47.90
67373;BME280;54257;54.496;18.412;2022-09-02T10:41:39;100593.98;;;20.12;48.86
67373;BME280;54257;54.496;18.412;2022-09-02T10:47:36;100596.23;;;20.39;46.54
67373;BME280;54257;54.496;18.412;2022-09-02T10:50:47;100591.61;;;20.35;46.38
67373;BME280;54257;54.496;18.412;2022-09-02T10:55:51;100585.27;;;20.44;45.97
67373;BME280;54257;54.496;18.412;2022-09-02T10:58:55;100589.42;;;20.45;45.49
67373;BME280;54257;54.496;18.412;2022-09-02T11:01:27;100593.29;;;20.25;45.48
67373;BME280;54257;54.496;18.412;2022-09-02T11:06:38;100591.93;;;20.09;46.03
67373;BME280;54257;54.496;18.412;2022-09-02T11:11:53;100596.90;;;20.28;47.08
67373;BME280;54257;54.496;18.412;2022-09-02T11:14:22;100597.54;;;20.19;47.82
67373;BME280;54257;54.496;18.412;2022-09-02T11:16:57;100597.65;;;20.09;48.25
67373;BME280;54257;54.496;18.412;2022-09-02T11:19:35;100597.40;;;20.16;48.78
67373;BME280;54257;54.496;18.412;2022-09-02T11:22:19;100593.17;;;20.21;48.44
67373;BME280;54257;54.496;18.412;2022-09-02T11:24:59;100588.09;;;20.40;48.98
67373;BME280;54257;54.496;18.412;2022-09-02T11:27:35;100584.33;;;20.73;48.59
67373;BME280;54257;54.496;18.412;2022-09-02T11:30:15;100584.49;;;21.18;47.85
67373;BME280;54257;54.496;18.412;2022-09-02T11:32:48;100582.33;;;21.71;46.53
67373;BME280;54257;54.496;18.412;2022-09-02T11:35:20;100574.64;;;22.17;44.96
67373;BME280;54257;54.496;18.412;2022-09-02T11:38:07;100577.02;;;22.28;44.39
67373;BME280;54257;54.496;18.412;2022-09-02T11:44:40;100585.40;;;21.83;43.83
67373;BME280;54257;54.496;18.412;2022-09-02T11:49:40;100587.55;;;21.12;45.83
67373;BME280;54257;54.496;18.412;2022-09-02T11:55:08;100587.92;;;20.53;46.73
67373;BME280;54257;54.496;18.412;2022-09-02T11:57:37;100588.24;;;20.40;46.98
67373;BME280;54257;54.496;18.412;2022-09-02T12:00:12;100582.80;;;20.32;47.00
67373;BME280;54257;54.496;18.412;2022-09-02T12:02:50;100579.29;;;20.61;47.25
67373;BME280;54257;54.496;18.412;2022-09-02T12:08:01;100577.86;;;21.31;44.87
67373;BME280;54257;54.496;18.412;2022-09-02T12:13:53;100576.83;;;20.98;45.11
67373;BME280;54257;54.496;18.412;2022-09-02T12:18:42;100572.17;;;20.84;45.33
67373;BME280;54257;54.496;18.412;2022-09-02T12:21:14;100571.34;;;20.82;45.76
67373;BME280;54257;54.496;18.412;2022-09-02T12:31:49;100562.13;;;21.36;44.51
67373;BME280;54257;54.496;18.412;2022-09-02T12:34:48;100561.79;;;21.63;44.87
67373;BME280;54257;54.496;18.412;2022-09-02T12:37:07;100556.92;;;22.07;43.79
67373;BME280;54257;54.496;18.412;2022-09-02T12:45:14;100553.63;;;22.85;42.73
67373;BME280;54257;54.496;18.412;2022-09-02T12:48:06;100554.30;;;22.48;42.33
67373;BME280;54257;54.496;18.412;2022-09-02T12:53:28;100557.66;;;21.42;43.82
67373;BME280;54257;54.496;18.412;2022-09-02T12:56:34;100550.57;;;20.99;44.70
67373;BME280;54257;54.496;18.412;2022-09-02T12:58:54;100549.46;;;20.59;45.99
67373;BME280;54257;54.496;18.412;2022-09-02T13:01:50;100546.27;;;20.39;46.31
67373;BME280;54257;54.496;18.412;2022-09-02T13:04:32;100541.28;;;20.49;47.09
67373;BME280;54257;54.496;18.412;2022-09-02T13:13:02;100543.33;;;21.56;44.72
67373;BME280;54257;54.496;18.412;2022-09-02T13:20:57;100544.61;;;21.43;44.26
67373;BME280;54257;54.496;18.412;2022-09-02T13:34:41;100552.39;;;21.64;44.81
67373;BME280;54257;54.496;18.412;2022-09-02T13:37:36;100553.18;;;21.49;44.48
67373;BME280;54257;54.496;18.412;2022-09-02T13:40:34;100552.84;;;21.30;45.33
67373;BME280;54257;54.496;18.412;2022-09-02T13:43:15;100549.47;;;21.22;45.37
67373;BME280;54257;54.496;18.412;2022-09-02T13:45:43;100556.31;;;21.18;45.42
67373;BME280;54257;54.496;18.412;2022-09-02T13:48:17;100552.28;;;21.32;45.68
67373;BME280;54257;54.496;18.412;2022-09-02T13:50:49;100551.52;;;21.46;44.98
67373;BME280;54257;54.496;18.412;2022-09-02T13:53:34;100547.93;;;21.42;44.89
67373;BME280;54257;54.496;18.412;2022-09-02T13:56:06;100546.30;;;21.26;45.55
67373;BME280;54257;54.496;18.412;2022-09-02T13:58:36;100547.92;;;21.12;45.32
67373;BME280;54257;54.496;18.412;2022-09-02T14:01:23;100549.61;;;20.94;45.56
67373;BME280;54257;54.496;18.412;2022-09-02T14:03:56;100544.33;;;20.98;45.40
67373;BME280;54257;54.496;18.412;2022-09-02T14:06:37;100545.42;;;21.05;45.57
67373;BME280;54257;54.496;18.412;2022-09-02T14:09:09;100539.95;;;21.11;45.47
67373;BME280;54257;54.496;18.412;2022-09-02T14:11:44;100540.95;;;21.13;44.79
67373;BME280;54257;54.496;18.412;2022-09-02T14:14:14;100542.73;;;21.00;44.83
67373;BME280;54257;54.496;18.412;2022-09-02T14:16:42;100539.41;;;20.90;45.30
67373;BME280;54257;54.496;18.412;2022-09-02T14:24:16;100547.01;;;21.14;45.12
67373;BME280;54257;54.496;18.412;2022-09-02T14:26:46;100546.61;;;21.16;44.84
67373;BME280;54257;54.496;18.412;2022-09-02T14:29:16;100549.86;;;21.10;44.45
67373;BME280;54257;54.496;18.412;2022-09-02T14:31:45;100552.42;;;20.92;44.61
67373;BME280;54257;54.496;18.412;2022-09-02T14:34:45;100549.45;;;20.71;44.98
67373;BME280;54257;54.496;18.412;2022-09-02T14:37:28;100549.58;;;20.51;45.10
67373;BME280;54257;54.496;18.412;2022-09-02T14:40:08;100550.40;;;20.27;45.43
67373;BME280;54257;54.496;18.412;2022-09-02T14:42:50;100552.55;;;20.10;45.98
67373;BME280;54257;54.496;18.412;2022-09-02T14:45:29;100553.06;;;19.97;46.08
67373;BME280;54257;54.496;18.412;2022-09-02T14:48:00;100553.55;;;19.85;46.45
67373;BME280;54257;54.496;18.412;2022-09-02T14:50:30;100551.39;;;19.77;46.51
67373;BME280;54257;54.496;18.412;2022-09-02T14:53:02;100556.29;;;19.74;46.64
67373;BME280;54257;54.496;18.412;2022-09-02T14:55:46;100556.15;;;19.70;47.01
67373;BME280;54257;54.496;18.412;2022-09-02T14:58:15;100557.22;;;19.67;46.87
67373;BME280;54257;54.496;18.412;2022-09-02T15:00:48;100553.88;;;19.55;46.53